TimeEET,TemperatureF,Dew PointF,Humidity,Sea Level PressureIn,VisibilityMPH,Wind Direction,Wind SpeedMPH,Gust SpeedMPH,PrecipitationIn,Events,Conditions,WindDirDegrees,DateUTC
12:00 AM,82.4,69.8,66,29.74,-9999.0,East,4.6,-,N/A,,Clear,80,2013-08-02 22:00:00
1:00 AM,80.6,69.8,70,29.74,-9999.0,North,6.9,-,N/A,,Clear,360,2013-08-02 23:00:00
2:00 AM,80.6,68.0,65,29.71,-9999.0,North,5.8,-,N/A,,Clear,10,2013-08-03 00:00:00
3:00 AM,80.6,68.0,65,29.74,-9999.0,NNE,4.6,-,N/A,,Clear,20,2013-08-03 01:00:00
4:00 AM,77.0,66.2,69,29.74,-9999.0,Calm,Calm,-,N/A,,Clear,0,2013-08-03 02:00:00
5:00 AM,77.0,66.2,69,29.74,-9999.0,Calm,Calm,-,N/A,,Clear,0,2013-08-03 03:00:00
6:00 AM,78.8,64.4,61,29.74,-9999.0,North,3.5,-,N/A,,Clear,350,2013-08-03 04:00:00
7:00 AM,89.6,60.8,38,29.77,-9999.0,North,8.1,-,N/A,,Clear,10,2013-08-03 05:00:00
8:00 AM,95.0,53.6,25,29.77,-9999.0,NNE,10.4,-,N/A,,Clear,20,2013-08-03 06:00:00
9:00 AM,96.8,55.4,25,29.77,-9999.0,NNE,8.1,-,N/A,,Clear,30,2013-08-03 07:00:00
10:00 AM,100.4,48.2,17,29.77,-9999.0,North,9.2,-,N/A,,Clear,10,2013-08-03 08:00:00
11:00 AM,100.4,44.6,15,29.77,-9999.0,NE,6.9,-,N/A,,Clear,40,2013-08-03 09:00:00
12:00 PM,104.0,41.0,12,29.74,-9999.0,NE,6.9,-,N/A,,Clear,50,2013-08-03 10:00:00
1:00 PM,107.6,39.2,10,29.74,-9999.0,East,5.8,-,N/A,,Clear,80,2013-08-03 11:00:00
2:00 PM,104.0,50.0,16,29.71,-9999.0,SSE,5.8,-,N/A,,Clear,160,2013-08-03 12:00:00
3:00 PM,105.8,44.6,13,29.71,-9999.0,SE,5.8,-,N/A,,Clear,130,2013-08-03 13:00:00
4:00 PM,104.0,48.2,15,29.68,-9999.0,SE,3.5,-,N/A,,Clear,140,2013-08-03 14:00:00
5:00 PM,102.2,46.4,15,29.68,-9999.0,SSE,4.6,-,N/A,,Clear,160,2013-08-03 15:00:00
6:00 PM,95.0,53.6,25,29.68,-9999.0,South,4.6,-,N/A,,Clear,170,2013-08-03 16:00:00
7:00 PM,93.2,55.4,28,29.68,-9999.0,South,4.6,-,N/A,,Clear,180,2013-08-03 17:00:00
8:00 PM,87.8,68.0,52,29.71,-9999.0,South,4.6,-,N/A,,Clear,190,2013-08-03 18:00:00
9:00 PM,87.8,66.2,49,29.71,-9999.0,Variable,2.3,-,N/A,,Clear,0,2013-08-03 19:00:00
10:00 PM,86.0,68.0,55,29.71,-9999.0,NNW,1.2,-,N/A,,Clear,330,2013-08-03 20:00:00
11:00 PM,86.0,69.8,58,29.71,-9999.0,ENE,8.1,-,N/A,,Clear,70,2013-08-03 21:00:00